sensor_id;sensor_type;location;lat;lon;timestamp;pressure;altitude;pressure_sealevel;temperature;humidity
57799;BME280;43626;53.866;30.298;2023-02-18T00:01:42;1011.8;;;-0.7;68
57799;BME280;43626;53.866;30.298;2023-02-18T00:07:06;1011.6;;;-0.7;67.9
57799;BME280;43626;53.866;30.298;2023-02-18T00:11:16;1011.4;;;-0.7;68.1
57799;BME280;43626;53.866;30.298;2023-02-18T00:16:48;1011.3;;;-0.7;68.2
57799;BME280;43626;53.866;30.298;2023-02-18T00:21:16;1011.1;;;-0.7;68.1
57799;BME280;43626;53.866;30.298;2023-02-18T00:26:48;1010.9;;;-0.7;68.2
57799;BME280;43626;53.866;30.298;2023-02-18T00:31:50;1010.8;;;-0.7;68.2
57799;BME280;43626;53.866;30.298;2023-02-18T00:36:22;1010.6;;;-0.7;68.2
57799;BME280;43626;53.866;30.298;2023-02-18T00:41:48;1010.5;;;-0.8;68.3
57799;BME280;43626;53.866;30.298;2023-02-18T00:46:30;1010.3;;;-0.8;68.4
57799;BME280;43626;53.866;30.298;2023-02-18T00:51:34;1010.2;;;-0.8;68.7
57799;BME280;43626;53.866;30.298;2023-02-18T00:57:04;1010;;;-0.8;69.1
57799;BME280;43626;53.866;30.298;2023-02-18T01:01:28;1009.9;;;-0.9;69.3
57799;BME280;43626;53.866;30.298;2023-02-18T01:06:28;1009.7;;;-0.9;69.4
57799;BME280;43626;53.866;30.298;2023-02-18T01:11:16;1009.5;;;-0.8;69.5
57799;BME280;43626;53.866;30.298;2023-02-18T01:16:50;1009.3;;;-0.7;69.3
57799;BME280;43626;53.866;30.298;2023-02-18T01:22:06;1009.2;;;-0.7;69.1
57799;BME280;43626;53.866;30.298;2023-02-18T01:27:04;1009;;;-0.7;69
57799;BME280;43626;53.866;30.298;2023-02-18T01:31:16;1008.8;;;-0.7;69
57799;BME280;43626;53.866;30.298;2023-02-18T01:36:36;1008.6;;;-0.7;69
57799;BME280;43626;53.866;30.298;2023-02-18T01:41:42;1008.5;;;-0.7;69
57799;BME280;43626;53.866;30.298;2023-02-18T01:46:44;1008.3;;;-0.7;68.9
57799;BME280;43626;53.866;30.298;2023-02-18T01:52:08;1008.1;;;-0.8;69.3
57799;BME280;43626;53.866;30.298;2023-02-18T01:57:06;1008;;;-0.7;69.3
57799;BME280;43626;53.866;30.298;2023-02-18T02:01:16;1007.8;;;-0.7;69.3
57799;BME280;43626;53.866;30.298;2023-02-18T02:06:17;1007.6;;;-0.8;69.4
57799;BME280;43626;53.866;30.298;2023-02-18T02:12:20;1007.5;;;-0.8;69.5
57799;BME280;43626;53.866;30.298;2023-02-18T02:17:04;1007.3;;;-0.7;69.4
57799;BME280;43626;53.866;30.298;2023-02-18T02:21:51;1007.2;;;-0.6;69.3
57799;BME280;43626;53.866;30.298;2023-02-18T02:26:53;1007;;;-0.6;69.2
57799;BME280;43626;53.866;30.298;2023-02-18T02:32:16;1006.9;;;-0.6;69.1
57799;BME280;43626;53.866;30.298;2023-02-18T02:36:51;1006.8;;;-0.7;69.2
57799;BME280;43626;53.866;30.298;2023-02-18T02:42:07;1006.7;;;-0.6;69.2
57799;BME280;43626;53.866;30.298;2023-02-18T02:46:22;1006.6;;;-0.7;69.3
57799;BME280;43626;53.866;30.298;2023-02-18T02:51:17;1006.5;;;-0.8;69.6
57799;BME280;43626;53.866;30.298;2023-02-18T02:57:06;1006.3;;;-0.8;69.8
57799;BME280;43626;53.866;30.298;2023-02-18T03:01:48;1006.2;;;-0.8;70
57799;BME280;43626;53.866;30.298;2023-02-18T03:07:10;1006.1;;;-0.8;70.2
57799;BME280;43626;53.866;30.298;2023-02-18T03:11:31;1006;;;-0.8;70.2
57799;BME280;43626;53.866;30.298;2023-02-18T03:16:18;1005.8;;;-0.7;70
57799;BME280;43626;53.866;30.298;2023-02-18T03:21:43;1005.7;;;-0.7;69.8
57799;BME280;43626;53.866;30.298;2023-02-18T03:26:30;1005.6;;;-0.7;69.9
57799;BME280;43626;53.866;30.298;2023-02-18T03:32:04;1005.4;;;-0.6;69.9
57799;BME280;43626;53.866;30.298;2023-02-18T03:36:44;1005.2;;;-0.6;69.8
57799;BME280;43626;53.866;30.298;2023-02-18T03:41:16;1005.1;;;-0.5;69.7
57799;BME280;43626;53.866;30.298;2023-02-18T03:46:42;1005.1;;;-0.6;69.8
57799;BME280;43626;53.866;30.298;2023-02-18T03:51:50;1005;;;-0.6;70
57799;BME280;43626;53.866;30.298;2023-02-18T03:57:06;1004.8;;;-0.6;70.2
57799;BME280;43626;53.866;30.298;2023-02-18T04:01:16;1004.8;;;-0.5;70.2
57799;BME280;43626;53.866;30.298;2023-02-18T04:06:30;1004.6;;;-0.4;69.9
57799;BME280;43626;53.866;30.298;2023-02-18T04:11:56;1004.5;;;-0.4;69.7
57799;BME280;43626;53.866;30.298;2023-02-18T04:16:30;1004.4;;;-0.4;69.8
57799;BME280;43626;53.866;30.298;2023-02-18T04:22:04;1004.2;;;-0.4;70
57799;BME280;43626;53.866;30.298;2023-02-18T04:26:42;1004.2;;;-0.4;70
57799;BME280;43626;53.866;30.298;2023-02-18T04:31:28;1004.1;;;-0.3;70.1
57799;BME280;43626;53.866;30.298;2023-02-18T04:36:56;1004;;;-0.3;70
57799;BME280;43626;53.866;30.298;2023-02-18T04:41:42;1004;;;-0.2;70.1
57799;BME280;43626;53.866;30.298;2023-02-18T04:47:06;1003.9;;;-0.2;70.1
57799;BME280;43626;53.866;30.298;2023-02-18T04:51:16;1003.8;;;-0.3;70.3
57799;BME280;43626;53.866;30.298;2023-02-18T04:56:48;1003.7;;;-0.2;70.2
57799;BME280;43626;53.866;30.298;2023-02-18T05:01:42;1003.6;;;-0.3;70.5
57799;BME280;43626;53.866;30.298;2023-02-18T05:06:50;1003.5;;;-0.3;70.6
57799;BME280;43626;53.866;30.298;2023-02-18T05:12:04;1003.4;;;-0.2;70.6
57799;BME280;43626;53.866;30.298;2023-02-18T05:16:28;1003.4;;;-0.2;70.5
57799;BME280;43626;53.866;30.298;2023-02-18T05:21:16;1003.3;;;-0.1;70.4
57799;BME280;43626;53.866;30.298;2023-02-18T05:26:58;1003.2;;;0;70.2
57799;BME280;43626;53.866;30.298;2023-02-18T05:31:16;1003.2;;;0;70.1
57799;BME280;43626;53.866;30.298;2023-02-18T05:37:06;1003.1;;;0;70
57799;BME280;43626;53.866;30.298;2023-02-18T05:41:42;1003.1;;;0;70.1
57799;BME280;43626;53.866;30.298;2023-02-18T05:46:16;1003.1;;;0;70.1
57799;BME280;43626;53.866;30.298;2023-02-18T05:51:56;1003;;;0;70.3
57799;BME280;43626;53.866;30.298;2023-02-18T05:56:16;1002.9;;;0.2;69.8
57799;BME280;43626;53.866;30.298;2023-02-18T06:02:04;1002.9;;;0.3;69.7
57799;BME280;43626;53.866;30.298;2023-02-18T06:06:16;1002.8;;;0.4;69.6
57799;BME280;43626;53.866;30.298;2023-02-18T06:11:30;1002.8;;;0.6;69.2
57799;BME280;43626;53.866;30.298;2023-02-18T06:16:56;1002.8;;;0.6;69.2
57799;BME280;43626;53.866;30.298;2023-02-18T06:21:36;1002.7;;;0.6;69.2
57799;BME280;43626;53.866;30.298;2023-02-18T06:27:06;1002.7;;;0.6;69.2
57799;BME280;43626;53.866;30.298;2023-02-18T06:31:42;1002.6;;;0.6;69.2
57799;BME280;43626;53.866;30.298;2023-02-18T06:36:16;1002.6;;;0.6;69.3
57799;BME280;43626;53.866;30.298;2023-02-18T06:41:56;1002.5;;;0.6;69.4
57799;BME280;43626;53.866;30.298;2023-02-18T06:46:16;1002.5;;;0.7;69.4
57799;BME280;43626;53.866;30.298;2023-02-18T06:51:52;1002.5;;;0.9;69.1
57799;BME280;43626;53.866;30.298;2023-02-18T06:56:48;1002.4;;;0.9;68.6
57799;BME280;43626;53.866;30.298;2023-02-18T07:01:26;1002.4;;;1;68.6
57799;BME280;43626;53.866;30.298;2023-02-18T07:06:28;1002.4;;;1.2;68.4
57799;BME280;43626;53.866;30.298;2023-02-18T07:11:28;1002.3;;;1.3;68.2
57799;BME280;43626;53.866;30.298;2023-02-18T07:17:02;1002.3;;;1.5;68
57799;BME280;43626;53.866;30.298;2023-02-18T07:21:42;1002.3;;;1.6;67.8
57799;BME280;43626;53.866;30.298;2023-02-18T07:27:02;1002.3;;;1.7;67.6
57799;BME280;43626;53.866;30.298;2023-02-18T07:31:54;1002.3;;;1.9;67
57799;BME280;43626;53.866;30.298;2023-02-18T07:36:32;1002.2;;;2;66.4
57799;BME280;43626;53.866;30.298;2023-02-18T07:42:02;1002.1;;;2.1;65.9
57799;BME280;43626;53.866;30.298;2023-02-18T07:46:46;1002.1;;;2.2;65.7
57799;BME280;43626;53.866;30.298;2023-02-18T07:51:16;1002.1;;;2.4;65.3
57799;BME280;43626;53.866;30.298;2023-02-18T07:56:56;1002.1;;;2.5;65.1
57799;BME280;43626;53.866;30.298;2023-02-18T08:01:28;1002;;;2.6;65.1
57799;BME280;43626;53.866;30.298;2023-02-18T08:07:04;1002;;;2.5;65.5
57799;BME280;43626;53.866;30.298;2023-02-18T08:11:30;1002;;;2.6;65.3
57799;BME280;43626;53.866;30.298;2023-02-18T08:16:16;1001.9;;;2.6;65.3
57799;BME280;43626;53.866;30.298;2023-02-18T08:21:42;1001.8;;;2.7;65.2
57799;BME280;43626;53.866;30.298;2023-02-18T08:26:28;1001.8;;;2.8;65
57799;BME280;43626;53.866;30.298;2023-02-18T08:32:04;1001.8;;;2.8;64.7
57799;BME280;43626;53.866;30.298;2023-02-18T08:36:16;1001.8;;;2.9;64.5
57799;BME280;43626;53.866;30.298;2023-02-18T08:41:46;1001.8;;;2.9;64.3
57799;BME280;43626;53.866;30.298;2023-02-18T08:46:56;1001.8;;;3;64.4
57799;BME280;43626;53.866;30.298;2023-02-18T08:51:28;1001.8;;;3;64.2
57799;BME280;43626;53.866;30.298;2023-02-18T08:56:36;1001.8;;;3.1;64.4
57799;BME280;43626;53.866;30.298;2023-02-18T09:01:42;1001.8;;;3.2;64.3
57799;BME280;43626;53.866;30.298;2023-02-18T09:06:22;1001.8;;;3.4;64.2
57799;BME280;43626;53.866;30.298;2023-02-18T09:11:54;1001.8;;;3.5;64.1
57799;BME280;43626;53.866;30.298;2023-02-18T09:16:28;1001.7;;;3.6;64
57799;BME280;43626;53.866;30.298;2023-02-18T09:22:02;1001.7;;;3.7;63.9
57799;BME280;43626;53.866;30.298;2023-02-18T09:26:28;1001.7;;;3.8;63.7
57799;BME280;43626;53.866;30.298;2023-02-18T09:31:23;1001.6;;;4;63.4
57799;BME280;43626;53.866;30.298;2023-02-18T09:36:56;1001.5;;;4.2;63.1
57799;BME280;43626;53.866;30.298;2023-02-18T09:41:19;1001.5;;;4.3;62.8
57799;BME280;43626;53.866;30.298;2023-02-18T09:47:05;1001.5;;;4.3;62.9
57799;BME280;43626;53.866;30.298;2023-02-18T09:51:48;1001.4;;;4.4;62.7
57799;BME280;43626;53.866;30.298;2023-02-18T09:57:04;1001.4;;;4.5;62.6
57799;BME280;43626;53.866;30.298;2023-02-18T10:01:56;1001.4;;;4.7;62.6
57799;BME280;43626;53.866;30.298;2023-02-18T10:06:17;1001.3;;;4.9;62.6
57799;BME280;43626;53.866;30.298;2023-02-18T10:12:06;1001.3;;;5;62.6
57799;BME280;43626;53.866;30.298;2023-02-18T10:16:42;1001.3;;;5.1;62.4
57799;BME280;43626;53.866;30.298;2023-02-18T10:22:04;1001.3;;;5.1;62.5
57799;BME280;43626;53.866;30.298;2023-02-18T10:26:54;1001.3;;;5.2;62.5
57799;BME280;43626;53.866;30.298;2023-02-18T10:31:43;1001.3;;;5.2;62.4
57799;BME280;43626;53.866;30.298;2023-02-18T10:37:03;1001.3;;;5.4;62.3
57799;BME280;43626;53.866;30.298;2023-02-18T10:41:31;1001.3;;;5.4;62.3
57799;BME280;43626;53.866;30.298;2023-02-18T10:47:06;1001.2;;;5.3;62.8
57799;BME280;43626;53.866;30.298;2023-02-18T10:51:54;1001.2;;;5.4;63.3
57799;BME280;43626;53.866;30.298;2023-02-18T10:56:30;1001.2;;;5.6;63.1
57799;BME280;43626;53.866;30.298;2023-02-18T11:02:03;1001.2;;;5.6;63.1
57799;BME280;43626;53.866;30.298;2023-02-18T11:06:18;1001.1;;;5.4;63.5
57799;BME280;43626;53.866;30.298;2023-02-18T11:12:02;1001.1;;;5.3;63.9
57799;BME280;43626;53.866;30.298;2023-02-18T11:16:42;1001.1;;;5.2;64
57799;BME280;43626;53.866;30.298;2023-02-18T11:21:20;1001.1;;;5.2;64.2
57799;BME280;43626;53.866;30.298;2023-02-18T11:27:03;1001.2;;;5.1;64.5
57799;BME280;43626;53.866;30.298;2023-02-18T11:32:02;1001.1;;;5;64.9
57799;BME280;43626;53.866;30.298;2023-02-18T11:37:07;1001.1;;;5;65
57799;BME280;43626;53.866;30.298;2023-02-18T11:41:16;1001.2;;;5;65.3
57799;BME280;43626;53.866;30.298;2023-02-18T11:46:16;1001.2;;;5;65.4
57799;BME280;43626;53.866;30.298;2023-02-18T11:51:48;1001.2;;;5.1;65.1
57799;BME280;43626;53.866;30.298;2023-02-18T11:56:42;1001.2;;;5.3;65
57799;BME280;43626;53.866;30.298;2023-02-18T12:02:05;1001.2;;;5.4;64.8
57799;BME280;43626;53.866;30.298;2023-02-18T12:06:55;1001.2;;;5.3;65
57799;BME280;43626;53.866;30.298;2023-02-18T12:11:17;1001.2;;;5.3;65.2
57799;BME280;43626;53.866;30.298;2023-02-18T12:17:21;1001.2;;;5.2;65.5
57799;BME280;43626;53.866;30.298;2023-02-18T12:21:44;1001.2;;;5.2;65.7
57799;BME280;43626;53.866;30.298;2023-02-18T12:27:04;1001.2;;;5;66.3
57799;BME280;43626;53.866;30.298;2023-02-18T12:31:57;1001.2;;;5;66.6
57799;BME280;43626;53.866;30.298;2023-02-18T12:36:17;1001.2;;;5.1;66.6
57799;BME280;43626;53.866;30.298;2023-02-18T12:42:05;1001.2;;;5.1;66.6
57799;BME280;43626;53.866;30.298;2023-02-18T12:46:45;1001.2;;;5.2;66.5
57799;BME280;43626;53.866;30.298;2023-02-18T12:52:05;1001.3;;;5.3;66
57799;BME280;43626;53.866;30.298;2023-02-18T12:56:58;1001.3;;;5.3;65.8
57799;BME280;43626;53.866;30.298;2023-02-18T13:01:20;1001.3;;;5.3;65.7
57799;BME280;43626;53.866;30.298;2023-02-18T13:07:21;1001.4;;;5.2;65.6
57799;BME280;43626;53.866;30.298;2023-02-18T13:11:33;1001.5;;;4.9;65.6
57799;BME280;43626;53.866;30.298;2023-02-18T13:16:49;1001.5;;;4.8;65.8
57799;BME280;43626;53.866;30.298;2023-02-18T13:21:55;1001.5;;;4.6;66.4
57799;BME280;43626;53.866;30.298;2023-02-18T13:26:34;1001.5;;;4.4;66.9
57799;BME280;43626;53.866;30.298;2023-02-18T13:32:05;1001.5;;;4.3;67.5
57799;BME280;43626;53.866;30.298;2023-02-18T13:36:18;1001.5;;;4.3;67.8
57799;BME280;43626;53.866;30.298;2023-02-18T13:42:10;1001.5;;;4.2;68
57799;BME280;43626;53.866;30.298;2023-02-18T13:46:46;1001.6;;;4.2;68.1
57799;BME280;43626;53.866;30.298;2023-02-18T13:51:29;1001.6;;;4.2;68.2
57799;BME280;43626;53.866;30.298;2023-02-18T13:57:02;1001.6;;;4.2;68.3
57799;BME280;43626;53.866;30.298;2023-02-18T14:01:42;1001.6;;;4.2;68.3
57799;BME280;43626;53.866;30.298;2023-02-18T14:08:10;1001.6;;;4.1;68.4
57799;BME280;43626;53.866;30.298;2023-02-18T14:11:54;1001.7;;;4.1;68.4
57799;BME280;43626;53.866;30.298;2023-02-18T14:16:16;1001.7;;;4;68.6
57799;BME280;43626;53.866;30.298;2023-02-18T14:22:22;1001.7;;;3.9;69.2
57799;BME280;43626;53.866;30.298;2023-02-18T14:26:54;1001.8;;;3.8;69.7
57799;BME280;43626;53.866;30.298;2023-02-18T14:31:47;1001.8;;;3.8;70
57799;BME280;43626;53.866;30.298;2023-02-18T14:37:09;1001.8;;;3.7;70.2
57799;BME280;43626;53.866;30.298;2023-02-18T14:41:37;1001.8;;;3.7;70.5
57799;BME280;43626;53.866;30.298;2023-02-18T14:47:10;1001.8;;;3.7;70.5
57799;BME280;43626;53.866;30.298;2023-02-18T14:51:44;1001.8;;;3.7;70.6
57799;BME280;43626;53.866;30.298;2023-02-18T14:56:52;1001.9;;;3.7;70.5
57799;BME280;43626;53.866;30.298;2023-02-18T15:02:08;1001.9;;;3.8;70.3
57799;BME280;43626;53.866;30.298;2023-02-18T15:06:24;1001.9;;;3.8;70.1
57799;BME280;43626;53.866;30.298;2023-02-18T15:12:02;1001.9;;;3.8;70.2
57799;BME280;43626;53.866;30.298;2023-02-18T15:16:42;1002;;;3.7;70.1
57799;BME280;43626;53.866;30.298;2023-02-18T15:21:48;1002;;;3.7;70.2
57799;BME280;43626;53.866;30.298;2023-02-18T15:27:05;1002;;;3.6;70.2
57799;BME280;43626;53.866;30.298;2023-02-18T15:31:15;1002.1;;;3.6;70
57799;BME280;43626;53.866;30.298;2023-02-18T15:37:06;1002.1;;;3.5;70.2
57799;BME280;43626;53.866;30.298;2023-02-18T15:41:42;1002.1;;;3.5;70.3
57799;BME280;43626;53.866;30.298;2023-02-18T15:46:48;1002.3;;;3.5;70.1
57799;BME280;43626;53.866;30.298;2023-02-18T15:51:57;1002.3;;;3.4;70.1
57799;BME280;43626;53.866;30.298;2023-02-18T15:56:35;1002.3;;;3.4;70
57799;BME280;43626;53.866;30.298;2023-02-18T16:01:46;1002.3;;;3.3;70.1
57799;BME280;43626;53.866;30.298;2023-02-18T16:06:44;1002.3;;;3.3;70.1
57799;BME280;43626;53.866;30.298;2023-02-18T16:11:34;1002.4;;;3.3;70.1
57799;BME280;43626;53.866;30.298;2023-02-18T16:17:05;1002.4;;;3.3;70.2
57799;BME280;43626;53.866;30.298;2023-02-18T16:21:25;1002.4;;;3.3;70.4
57799;BME280;43626;53.866;30.298;2023-02-18T16:27:05;1002.4;;;3.3;70.4
57799;BME280;43626;53.866;30.298;2023-02-18T16:31:16;1002.4;;;3.3;70.4
57799;BME280;43626;53.866;30.298;2023-02-18T16:36:36;1002.5;;;3.3;70.4
57799;BME280;43626;53.866;30.298;2023-02-18T16:42:04;1002.5;;;3.4;70.4
57799;BME280;43626;53.866;30.298;2023-02-18T16:46:34;1002.6;;;3.3;70.3
57799;BME280;43626;53.866;30.298;2023-02-18T16:52:06;1002.6;;;3.3;70.3
57799;BME280;43626;53.866;30.298;2023-02-18T16:56:16;1002.6;;;3.2;70.4
57799;BME280;43626;53.866;30.298;2023-02-18T17:01:46;1002.6;;;3.1;70.4
57799;BME280;43626;53.866;30.298;2023-02-18T17:07:05;1002.7;;;3.1;70.4
57799;BME280;43626;53.866;30.298;2023-02-18T17:11:29;1002.8;;;3.1;70.4
57799;BME280;43626;53.866;30.298;2023-02-18T17:17:04;1002.8;;;3.1;70.4
57799;BME280;43626;53.866;30.298;2023-02-18T17:21:42;1002.8;;;3;70.5
57799;BME280;43626;53.866;30.298;2023-02-18T17:26:30;1002.8;;;3;70.7
57799;BME280;43626;53.866;30.298;2023-02-18T17:32:04;1002.8;;;3;70.9
57799;BME280;43626;53.866;30.298;2023-02-18T17:36:16;1002.9;;;3;70.9
57799;BME280;43626;53.866;30.298;2023-02-18T17:42:02;1002.9;;;2.9;70.9
57799;BME280;43626;53.866;30.298;2023-02-18T17:46:16;1002.9;;;3;70.8
57799;BME280;43626;53.866;30.298;2023-02-18T17:51:48;1003;;;3;70.8
57799;BME280;43626;53.866;30.298;2023-02-18T17:57:06;1003;;;3;70.8
57799;BME280;43626;53.866;30.298;2023-02-18T18:01:48;1003.1;;;3;70.8
57799;BME280;43626;53.866;30.298;2023-02-18T18:07:02;1003.1;;;3;70.7
57799;BME280;43626;53.866;30.298;2023-02-18T18:11:44;1003.2;;;3;70.8
57799;BME280;43626;53.866;30.298;2023-02-18T18:16:46;1003.1;;;2.9;70.7
57799;BME280;43626;53.866;30.298;2023-02-18T18:21:51;1003;;;2.9;70.7
57799;BME280;43626;53.866;30.298;2023-02-18T18:26:16;1003.1;;;2.9;70.7
57799;BME280;43626;53.866;30.298;2023-02-18T18:31:40;1003.1;;;2.9;70.3
57799;BME280;43626;53.866;30.298;2023-02-18T18:36:48;1003.1;;;3;70.3
57799;BME280;43626;53.866;30.298;2023-02-18T18:42:06;1003.1;;;3;69.9
57799;BME280;43626;53.866;30.298;2023-02-18T18:46:52;1003.2;;;3;69.8
57799;BME280;43626;53.866;30.298;2023-02-18T18:51:42;1003.2;;;3;69.4
57799;BME280;43626;53.866;30.298;2023-02-18T18:56:44;1003.2;;;3;69.4
57799;BME280;43626;53.866;30.298;2023-02-18T19:01:48;1003.2;;;3;69.2
57799;BME280;43626;53.866;30.298;2023-02-18T19:07:02;1003.3;;;2.9;69.2
57799;BME280;43626;53.866;30.298;2023-02-18T19:12:04;1003.2;;;2.9;69.2
57799;BME280;43626;53.866;30.298;2023-02-18T19:16:24;1003.3;;;2.8;68.8
57799;BME280;43626;53.866;30.298;2023-02-18T19:21:16;1003.3;;;2.8;68.9
57799;BME280;43626;53.866;30.298;2023-02-18T19:26:48;1003.3;;;2.8;68.9
57799;BME280;43626;53.866;30.298;2023-02-18T19:32:04;1003.3;;;2.8;68.7
57799;BME280;43626;53.866;30.298;2023-02-18T19:36:50;1003.3;;;2.9;68.5
57799;BME280;43626;53.866;30.298;2023-02-18T19:41:29;1003.3;;;2.9;68.5
57799;BME280;43626;53.866;30.298;2023-02-18T19:46:28;1003.3;;;2.9;68.5
57799;BME280;43626;53.866;30.298;2023-02-18T19:52:04;1003.3;;;2.9;68.5
57799;BME280;43626;53.866;30.298;2023-02-18T19:57:02;1003.4;;;2.9;68.5
57799;BME280;43626;53.866;30.298;2023-02-18T20:01:50;1003.3;;;2.8;68.4
57799;BME280;43626;53.866;30.298;2023-02-18T20:06:28;1003.4;;;2.8;68.4
57799;BME280;43626;53.866;30.298;2023-02-18T20:11:42;1003.5;;;2.8;68.2
57799;BME280;43626;53.866;30.298;2023-02-18T20:16:52;1003.5;;;2.8;68.1
57799;BME280;43626;53.866;30.298;2023-02-18T20:22:04;1003.5;;;2.8;67.9
57799;BME280;43626;53.866;30.298;2023-02-18T20:26:52;1003.6;;;2.8;67.5
57799;BME280;43626;53.866;30.298;2023-02-18T20:31:16;1003.5;;;2.8;67.3
57799;BME280;43626;53.866;30.298;2023-02-18T20:36:42;1003.7;;;2.8;67.1
57799;BME280;43626;53.866;30.298;2023-02-18T20:41:48;1003.6;;;2.8;67.1
57799;BME280;43626;53.866;30.298;2023-02-18T20:47:04;1003.6;;;2.8;67.1
57799;BME280;43626;53.866;30.298;2023-02-18T20:51:50;1003.7;;;2.8;67
57799;BME280;43626;53.866;30.298;2023-02-18T20:56:17;1003.7;;;2.8;66.8
57799;BME280;43626;53.866;30.298;2023-02-18T21:01:40;1003.7;;;2.8;66.7
57799;BME280;43626;53.866;30.298;2023-02-18T21:06:52;1003.7;;;2.8;66.5
57799;BME280;43626;53.866;30.298;2023-02-18T21:12:06;1003.7;;;2.8;66.1
57799;BME280;43626;53.866;30.298;2023-02-18T21:16:52;1003.8;;;2.7;65.8
57799;BME280;43626;53.866;30.298;2023-02-18T21:21:38;1003.7;;;2.7;65.7
57799;BME280;43626;53.866;30.298;2023-02-18T21:26:40;1003.8;;;2.7;65.6
57799;BME280;43626;53.866;30.298;2023-02-18T21:31:50;1003.8;;;2.7;65.6
57799;BME280;43626;53.866;30.298;2023-02-18T21:37:02;1003.8;;;2.7;65.6
57799;BME280;43626;53.866;30.298;2023-02-18T21:41:50;1003.8;;;2.7;65.6
57799;BME280;43626;53.866;30.298;2023-02-18T21:47:04;1003.8;;;2.7;65.6
57799;BME280;43626;53.866;30.298;2023-02-18T21:51:42;1003.8;;;2.7;65.4
57799;BME280;43626;53.866;30.298;2023-02-18T21:56:52;1003.8;;;2.7;65.3
57799;BME280;43626;53.866;30.298;2023-02-18T22:02:02;1003.8;;;2.7;65.2
57799;BME280;43626;53.866;30.298;2023-02-18T22:06:48;1003.8;;;2.6;65
57799;BME280;43626;53.866;30.298;2023-02-18T22:11:28;1003.9;;;2.6;65.1
57799;BME280;43626;53.866;30.298;2023-02-18T22:16:40;1003.9;;;2.6;65.1
57799;BME280;43626;53.866;30.298;2023-02-18T22:21:50;1003.9;;;2.5;65
57799;BME280;43626;53.866;30.298;2023-02-18T22:27:02;1003.9;;;2.6;64.8
57799;BME280;43626;53.866;30.298;2023-02-18T22:31:50;1004;;;2.6;64.7
57799;BME280;43626;53.866;30.298;2023-02-18T22:36:16;1004;;;2.6;64.7
57799;BME280;43626;53.866;30.298;2023-02-18T22:41:30;1004.1;;;2.6;64.7
57799;BME280;43626;53.866;30.298;2023-02-18T22:46:16;1004.1;;;2.6;64.6
57799;BME280;43626;53.866;30.298;2023-02-18T22:52:04;1004.2;;;2.7;64.6
57799;BME280;43626;53.866;30.298;2023-02-18T22:56:48;1004.1;;;2.7;64.5
57799;BME280;43626;53.866;30.298;2023-02-18T23:01:35;1004.2;;;2.7;64.3
57799;BME280;43626;53.866;30.298;2023-02-18T23:06:30;1004.1;;;2.7;64.1
57799;BME280;43626;53.866;30.298;2023-02-18T23:11:17;1004.3;;;2.6;64.1
57799;BME280;43626;53.866;30.298;2023-02-18T23:17:02;1004.3;;;2.6;64.1
57799;BME280;43626;53.866;30.298;2023-02-18T23:21:50;1004.4;;;2.5;64.2
57799;BME280;43626;53.866;30.298;2023-02-18T23:26:16;1004.3;;;2.5;64.2
57799;BME280;43626;53.866;30.298;2023-02-18T23:31:16;1004.4;;;2.5;64.4
57799;BME280;43626;53.866;30.298;2023-02-18T23:36:28;1004.4;;;2.5;64.4
57799;BME280;43626;53.866;30.298;2023-02-18T23:42:04;1004.5;;;2.5;64.3
57799;BME280;43626;53.866;30.298;2023-02-18T23:46:50;1004.5;;;2.5;64.4
57799;BME280;43626;53.866;30.298;2023-02-18T23:51:48;1004.5;;;2.5;64.4
57799;BME280;43626;53.866;30.298;2023-02-18T23:56:54;1004.5;;;2.5;64.3
